createdAt,value
2018-08-25T00:01:09.951Z,12.40
2018-08-25T00:03:38.344Z,12.40
2018-08-25T00:06:06.985Z,12.30
2018-08-25T00:08:35.296Z,12.30
2018-08-25T00:11:03.576Z,12.30
2018-08-25T00:13:31.868Z,12.20
2018-08-25T00:16:00.222Z,12.20
2018-08-25T00:18:28.433Z,12.20
2018-08-25T00:20:56.731Z,12.30
2018-08-25T00:23:24.985Z,12.20
2018-08-25T00:25:53.193Z,12.30
2018-08-25T00:28:21.606Z,12.30
2018-08-25T00:30:55.319Z,12.40
2018-08-25T00:33:23.587Z,12.40
2018-08-25T00:35:51.892Z,12.50
2018-08-25T00:38:20.123Z,12.50
2018-08-25T00:40:48.396Z,12.50
2018-08-25T00:43:16.634Z,12.50
2018-08-25T00:45:44.913Z,12.40
2018-08-25T00:48:13.152Z,12.40
2018-08-25T00:50:41.536Z,12.40
2018-08-25T00:53:10.010Z,12.30
2018-08-25T00:55:38.269Z,12.30
2018-08-25T00:58:07.733Z,12.30
2018-08-25T01:00:36.102Z,12.20
2018-08-25T01:03:04.649Z,12.10
2018-08-25T01:05:33.004Z,12.00
2018-08-25T01:08:01.317Z,12.00
2018-08-25T01:10:32.041Z,12.00
2018-08-25T01:13:00.305Z,12.00
2018-08-25T01:15:28.747Z,11.90
2018-08-25T01:17:57.029Z,11.80
2018-08-25T01:20:25.967Z,11.80
2018-08-25T01:22:54.372Z,11.80
2018-08-25T01:25:23.127Z,11.80
2018-08-25T01:27:51.569Z,11.70
2018-08-25T01:30:20.472Z,11.70
2018-08-25T01:32:49.924Z,11.70
2018-08-25T01:35:18.414Z,11.70
2018-08-25T01:37:46.931Z,11.60
2018-08-25T01:40:15.928Z,11.60
2018-08-25T01:42:45.134Z,11.50
2018-08-25T01:45:13.757Z,11.50
2018-08-25T01:47:42.531Z,11.40
2018-08-25T01:50:13.767Z,11.40
2018-08-25T01:52:44.658Z,11.40
2018-08-25T01:55:13.441Z,11.30
2018-08-25T01:57:42.265Z,11.40
2018-08-25T02:00:10.740Z,11.40
2018-08-25T02:02:40.376Z,11.30
2018-08-25T02:05:14.084Z,11.20
2018-08-25T02:07:42.776Z,11.20
2018-08-25T02:10:11.290Z,11.20
2018-08-25T02:12:39.848Z,11.20
2018-08-25T02:15:08.144Z,11.20
2018-08-25T02:17:36.737Z,11.20
2018-08-25T02:20:07.613Z,11.20
2018-08-25T02:22:35.845Z,11.20
2018-08-25T02:25:04.197Z,11.20
2018-08-25T02:27:32.509Z,11.10
2018-08-25T02:30:01.025Z,11.10
2018-08-25T02:32:29.459Z,11.10
2018-08-25T02:34:57.730Z,11.20
2018-08-25T02:37:26.149Z,11.20
2018-08-25T02:39:54.754Z,11.20
2018-08-25T02:42:23.117Z,11.10
2018-08-25T02:44:51.440Z,11.10
2018-08-25T02:47:19.965Z,11.10
2018-08-25T02:49:48.296Z,11.10
2018-08-25T02:52:16.547Z,11.00
2018-08-25T02:54:44.865Z,11.00
2018-08-25T02:57:13.545Z,10.90
2018-08-25T02:59:42.899Z,10.90
2018-08-25T03:02:11.318Z,11.00
2018-08-25T03:04:39.592Z,11.00
2018-08-25T03:07:07.832Z,11.00
2018-08-25T03:09:36.156Z,11.10
2018-08-25T03:12:04.665Z,11.00
2018-08-25T03:14:33.055Z,11.00
2018-08-25T03:17:01.712Z,10.90
2018-08-25T03:19:30.415Z,10.90
2018-08-25T03:21:58.777Z,10.90
2018-08-25T03:24:27.192Z,11.10
2018-08-25T03:26:55.478Z,11.00
2018-08-25T03:29:23.868Z,11.00
2018-08-25T03:31:52.356Z,11.00
2018-08-25T03:34:20.639Z,11.00
2018-08-25T03:36:48.992Z,10.90
2018-08-25T03:39:17.252Z,11.00
2018-08-25T03:41:45.476Z,11.10
2018-08-25T03:44:13.862Z,11.10
2018-08-25T03:46:42.199Z,11.10
2018-08-25T03:49:10.760Z,11.20
2018-08-25T03:51:39.255Z,11.30
2018-08-25T03:54:07.810Z,11.30
2018-08-25T03:56:36.454Z,11.30
2018-08-25T03:59:04.896Z,11.30
2018-08-25T04:01:33.493Z,11.40
2018-08-25T04:04:02.575Z,11.30
2018-08-25T04:06:30.869Z,11.30
2018-08-25T04:08:59.189Z,11.20
2018-08-25T04:11:27.460Z,11.20
2018-08-25T04:13:55.730Z,11.20
2018-08-25T04:16:23.995Z,11.20
2018-08-25T04:18:52.429Z,11.10
2018-08-25T04:21:20.704Z,11.10
2018-08-25T04:23:49.055Z,11.10
2018-08-25T04:26:17.260Z,11.10
2018-08-25T04:28:45.543Z,11.00
2018-08-25T04:31:13.920Z,10.90
2018-08-25T04:33:42.183Z,10.90
2018-08-25T04:36:10.452Z,10.90
2018-08-25T04:38:38.792Z,10.90
2018-08-25T04:41:07.090Z,10.90
2018-08-25T04:43:35.308Z,10.90
2018-08-25T04:46:03.551Z,10.90
2018-08-25T04:48:32.017Z,11.10
2018-08-25T04:51:00.276Z,11.10
2018-08-25T04:53:28.797Z,11.00
2018-08-25T04:55:57.220Z,11.10
2018-08-25T04:58:25.438Z,11.10
2018-08-25T05:00:53.686Z,11.10
2018-08-25T05:03:21.873Z,11.20
2018-08-25T05:05:50.174Z,11.30
2018-08-25T05:08:18.392Z,11.40
2018-08-25T05:10:46.670Z,11.50
2018-08-25T05:13:15.311Z,11.50
2018-08-25T05:15:43.713Z,11.60
2018-08-25T05:18:11.911Z,11.70
2018-08-25T05:20:40.253Z,11.80
2018-08-25T05:23:08.489Z,11.80
2018-08-25T05:25:36.695Z,11.70
2018-08-25T05:28:04.931Z,11.70
2018-08-25T05:30:33.159Z,11.80
2018-08-25T05:33:01.373Z,11.80
2018-08-25T05:35:29.613Z,11.70
2018-08-25T05:37:59.299Z,11.70
2018-08-25T05:40:27.534Z,11.60
2018-08-25T05:42:55.912Z,11.60
2018-08-25T05:45:24.394Z,11.60
2018-08-25T05:47:52.750Z,11.60
2018-08-25T05:50:20.957Z,11.60
2018-08-25T05:52:49.410Z,11.70
2018-08-25T06:43:05.960Z,11.70
2018-08-25T06:45:38.036Z,13.90
2018-08-25T06:48:12.769Z,13.90
2018-08-25T06:51:09.011Z,13.90
2018-08-25T06:53:38.900Z,13.80
2018-08-25T06:56:07.484Z,13.90
2018-08-25T06:58:36.296Z,13.90
2018-08-25T07:01:32.230Z,13.80
2018-08-25T07:04:02.613Z,13.90
2018-08-25T07:09:25.725Z,14.00
2018-08-25T07:11:54.381Z,14.00
2018-08-25T07:14:25.752Z,14.10
2018-08-25T07:16:59.419Z,14.30
2018-08-25T07:19:29.148Z,14.30
2018-08-25T07:22:01.573Z,14.50
2018-08-25T07:24:29.824Z,14.60
2018-08-25T07:26:58.065Z,14.80
2018-08-25T07:29:26.308Z,14.90
2018-08-25T07:32:06.165Z,15.00
2018-08-25T07:34:39.030Z,15.20
2018-08-25T07:37:07.689Z,15.30
2018-08-25T07:39:44.029Z,15.40
2018-08-25T07:42:23.644Z,15.50
2018-08-25T07:44:53.442Z,15.70
2018-08-25T07:47:24.989Z,15.80
2018-08-25T07:49:56.836Z,15.90
2018-08-25T07:52:27.677Z,15.90
2018-08-25T07:54:58.504Z,15.90
2018-08-25T07:57:26.745Z,15.90
2018-08-25T07:59:56.889Z,15.80
2018-08-25T08:02:25.356Z,15.70
2018-08-25T08:04:53.892Z,15.60
2018-08-25T08:07:24.046Z,15.50
2018-08-25T08:09:53.138Z,15.30
2018-08-25T08:12:31.971Z,15.10
2018-08-25T08:15:08.174Z,14.90
2018-08-25T08:18:38.441Z,14.70
2018-08-25T08:21:09.220Z,14.50
2018-08-25T08:23:50.462Z,14.50
2018-08-25T08:26:22.224Z,14.40
2018-08-25T08:28:52.684Z,14.50
2018-08-25T08:31:23.357Z,14.50
2018-08-25T08:33:55.196Z,14.60
2018-08-25T08:36:24.066Z,14.80
2018-08-25T08:38:53.248Z,14.90
2018-08-25T08:41:22.707Z,14.90
2018-08-25T08:43:51.366Z,14.90
2018-08-25T08:46:27.741Z,14.90
2018-08-25T08:48:56.506Z,14.90
2018-08-25T08:51:25.509Z,15.00
2018-08-25T08:53:54.645Z,15.10
2018-08-25T08:56:22.967Z,15.20
2018-08-25T08:58:51.512Z,15.30
2018-08-25T09:01:21.694Z,15.30
2018-08-25T09:03:52.138Z,15.30
2018-08-25T09:06:21.885Z,15.30
2018-08-25T09:08:54.902Z,15.30
2018-08-25T09:11:26.857Z,15.30
2018-08-25T09:13:57.499Z,15.20
2018-08-25T09:16:34.100Z,15.20
2018-08-25T09:19:07.081Z,15.00
2018-08-25T09:21:46.091Z,15.00
2018-08-25T09:24:52.750Z,14.90
2018-08-25T09:27:22.802Z,14.90
2018-08-25T09:29:53.357Z,14.80
2018-08-25T09:32:28.224Z,14.70
2018-08-25T09:34:56.672Z,14.70
2018-08-25T09:37:26.590Z,14.60
2018-08-25T09:39:55.660Z,14.70
2018-08-25T09:45:29.658Z,14.80
2018-08-25T09:48:07.747Z,14.90
2018-08-25T09:50:38.738Z,15.10
2018-08-25T09:53:12.182Z,15.30
2018-08-25T09:55:40.600Z,15.60
2018-08-25T09:58:09.881Z,15.80
2018-08-25T10:00:43.140Z,16.10
2018-08-25T10:03:19.731Z,16.30
2018-08-25T10:05:48.353Z,16.60
2018-08-25T10:08:16.919Z,16.80
2018-08-25T10:10:52.558Z,16.90
2018-08-25T10:14:17.805Z,16.90
2018-08-25T10:16:50.543Z,16.80
2018-08-25T10:19:23.110Z,16.70
2018-08-25T10:46:39.197Z,16.70
2018-08-25T10:49:09.602Z,16.00
2018-08-25T10:51:40.263Z,16.30
2018-08-25T10:54:19.698Z,16.60
2018-08-25T10:56:48.589Z,16.80
2018-08-25T10:59:17.182Z,16.80
2018-08-25T11:01:45.475Z,16.90
2018-08-25T11:04:14.599Z,16.90
2018-08-25T11:06:43.687Z,17.00
2018-08-25T11:15:19.384Z,16.90
2018-08-25T11:17:48.575Z,16.90
2018-08-25T11:20:18.239Z,17.00
2018-08-25T11:22:51.530Z,17.00
2018-08-25T11:37:32.577Z,15.60
2018-08-25T11:40:01.741Z,15.30
2018-08-25T11:42:41.614Z,15.10
2018-08-25T11:45:10.454Z,14.90
2018-08-25T11:47:38.978Z,14.80
2018-08-25T11:50:07.535Z,14.70
2018-08-25T11:52:40.780Z,14.80
2018-08-25T11:55:09.163Z,14.90
2018-08-25T11:57:37.635Z,15.00
2018-08-25T12:00:07.636Z,15.20
2018-08-25T12:02:36.217Z,15.50
2018-08-25T12:05:05.000Z,15.70
2018-08-25T12:07:33.472Z,15.90
2018-08-25T12:10:02.721Z,16.00
2018-08-25T12:12:33.234Z,16.20
2018-08-25T12:15:02.154Z,16.40
2018-08-25T12:17:36.531Z,16.50
2018-08-25T12:20:05.703Z,16.40
2018-08-25T12:22:37.794Z,16.10
2018-08-25T12:25:06.816Z,16.10
2018-08-25T12:27:35.582Z,16.10
2018-08-25T12:30:06.735Z,16.10
2018-08-25T12:32:35.299Z,16.10
2018-08-25T12:38:21.969Z,16.10
2018-08-25T12:40:50.628Z,16.10
2018-08-25T12:43:19.338Z,16.10
2018-08-25T12:46:02.362Z,16.20
2018-08-25T12:48:31.210Z,16.20
2018-08-25T12:51:05.801Z,16.20
2018-08-25T12:53:34.269Z,16.20
2018-08-25T12:56:09.718Z,16.20
2018-08-25T12:58:38.784Z,16.20
2018-08-25T13:01:07.574Z,16.30
2018-08-25T13:03:37.035Z,16.40
2018-08-25T13:06:05.873Z,16.50
2018-08-25T13:08:37.046Z,16.40
2018-08-25T13:11:05.644Z,16.30
2018-08-25T13:13:34.666Z,16.30
2018-08-25T13:16:23.865Z,16.10
2018-08-25T13:18:52.630Z,16.00
2018-08-25T13:21:22.597Z,15.90
2018-08-25T13:26:43.770Z,15.60
2018-08-25T13:29:24.448Z,15.50
2018-08-25T13:32:10.608Z,15.60
2018-08-25T13:34:48.074Z,15.60
2018-08-25T13:40:10.432Z,16.10
2018-08-25T13:42:42.185Z,16.30
2018-08-25T13:45:16.807Z,16.30
2018-08-25T13:47:53.914Z,16.20
2018-08-25T13:50:32.819Z,16.20
2018-08-25T13:53:02.329Z,16.00
2018-08-25T13:55:30.973Z,15.80
2018-08-25T13:58:09.221Z,15.70
2018-08-25T14:00:49.483Z,15.70
2018-08-25T14:03:22.601Z,15.60
2018-08-25T14:05:55.902Z,15.70
2018-08-25T14:08:46.671Z,15.70
2018-08-25T14:11:25.331Z,15.90
2018-08-25T14:13:54.581Z,16.10
2018-08-25T14:16:25.656Z,16.30
2018-08-25T14:18:55.672Z,16.30
2018-08-25T14:21:32.273Z,16.30
2018-08-25T14:24:00.855Z,16.30
2018-08-25T14:26:38.274Z,16.40
2018-08-25T14:29:23.278Z,16.30
2018-08-25T14:32:17.896Z,16.20
2018-08-25T14:34:56.616Z,16.10
2018-08-25T14:37:35.757Z,16.20
2018-08-25T14:40:44.732Z,16.30
2018-08-25T14:46:25.094Z,16.30
2018-08-25T14:58:46.414Z,16.10
2018-08-25T15:01:21.447Z,15.30
2018-08-25T15:04:16.529Z,15.20
2018-08-25T15:10:55.759Z,15.10
2018-08-25T15:13:35.040Z,15.10
2018-08-25T15:16:10.177Z,15.20
2018-08-25T15:19:03.237Z,15.30
2018-08-25T15:21:37.781Z,15.20
2018-08-25T15:54:49.829Z,15.30
2018-08-25T15:57:21.170Z,15.30
2018-08-25T15:59:51.015Z,15.20
2018-08-25T16:06:08.433Z,15.20
2018-08-25T16:11:19.420Z,15.00
2018-08-25T16:50:31.573Z,15.10
2018-08-25T16:56:44.607Z,15.00
2018-08-25T17:12:10.319Z,15.00
2018-08-25T17:17:39.200Z,14.90
2018-08-25T17:20:19.584Z,14.90
2018-08-25T17:22:55.789Z,14.90
2018-08-25T17:25:26.221Z,14.80
2018-08-25T17:30:52.535Z,14.80
2018-08-25T17:42:38.015Z,14.50
2018-08-25T17:45:09.828Z,14.40
2018-08-25T17:47:59.110Z,14.40
2018-08-25T17:53:53.611Z,14.30
2018-08-25T17:59:21.783Z,14.10
2018-08-25T18:01:50.405Z,14.10
2018-08-25T18:04:18.753Z,14.00
2018-08-25T18:06:47.260Z,14.00
2018-08-25T18:09:16.273Z,14.00
2018-08-25T18:11:44.701Z,13.90
2018-08-25T18:14:12.911Z,13.80
2018-08-25T18:16:43.376Z,13.70
2018-08-25T18:19:11.761Z,13.70
2018-08-25T18:21:41.096Z,13.60
2018-08-25T18:24:09.425Z,13.60
2018-08-25T18:26:37.977Z,13.60
2018-08-25T18:29:06.349Z,13.60
2018-08-25T18:31:34.652Z,13.50
2018-08-25T18:34:03.129Z,13.50
2018-08-25T18:36:31.475Z,13.40
2018-08-25T18:38:59.670Z,13.40
2018-08-25T18:41:28.046Z,13.30
2018-08-25T18:43:56.499Z,13.30
2018-08-25T18:46:25.436Z,13.30
2018-08-25T18:48:53.666Z,13.20
2018-08-25T18:51:22.059Z,13.20
2018-08-25T18:53:50.414Z,13.20
2018-08-25T18:56:18.656Z,13.10
2018-08-25T18:58:46.915Z,13.10
2018-08-25T19:01:15.305Z,13.10
2018-08-25T19:03:43.475Z,13.10
2018-08-25T19:06:11.923Z,13.00
2018-08-25T19:08:40.148Z,13.00
2018-08-25T19:11:08.338Z,12.90
2018-08-25T19:13:36.678Z,12.90
2018-08-25T19:16:05.465Z,12.90
2018-08-25T19:18:33.707Z,12.90
2018-08-25T19:21:01.983Z,12.90
2018-08-25T19:23:30.094Z,12.90
2018-08-25T19:25:58.420Z,13.00
2018-08-25T19:28:26.633Z,12.90
2018-08-25T19:30:54.916Z,12.90
2018-08-25T19:33:23.215Z,12.80
2018-08-25T19:35:51.459Z,12.80
2018-08-25T19:38:20.141Z,12.70
2018-08-25T19:40:48.524Z,12.80
2018-08-25T19:43:16.805Z,12.80
2018-08-25T19:45:44.967Z,12.80
2018-08-25T19:48:13.173Z,12.70
2018-08-25T19:50:41.316Z,12.70
2018-08-25T19:53:12.256Z,12.70
2018-08-25T19:55:40.586Z,12.70
2018-08-25T19:58:08.745Z,12.60
2018-08-25T20:00:37.122Z,12.60
2018-08-25T20:03:05.496Z,12.60
2018-08-25T20:05:33.765Z,12.60
2018-08-25T20:08:02.181Z,12.60
2018-08-25T20:10:30.439Z,12.50
2018-08-25T20:12:58.825Z,12.60
2018-08-25T20:15:27.422Z,12.50
2018-08-25T20:17:55.691Z,12.50
2018-08-25T20:20:24.037Z,12.50
2018-08-25T20:22:53.049Z,12.50
2018-08-25T20:25:21.522Z,12.50
2018-08-25T20:27:50.889Z,12.40
2018-08-25T20:30:19.227Z,12.30
2018-08-25T20:32:47.489Z,12.40
2018-08-25T20:35:15.839Z,12.40
2018-08-25T20:37:44.529Z,12.40
2018-08-25T20:40:13.942Z,12.30
2018-08-25T20:42:42.495Z,12.40
2018-08-25T20:45:10.888Z,12.30
2018-08-25T20:47:39.289Z,12.30
2018-08-25T20:50:08.385Z,12.20
2018-08-25T20:52:45.860Z,12.30
2018-08-25T20:55:14.454Z,12.20
2018-08-25T20:57:42.843Z,12.20
2018-08-25T21:00:12.082Z,12.20
2018-08-25T21:02:40.421Z,12.20
2018-08-25T21:05:08.864Z,12.20
2018-08-25T21:07:37.249Z,12.10
2018-08-25T21:10:06.786Z,12.10
2018-08-25T21:12:35.551Z,12.00
2018-08-25T21:15:05.070Z,12.00
2018-08-25T21:17:33.498Z,12.00
2018-08-25T21:20:02.556Z,12.00
2018-08-25T21:22:31.054Z,12.00
2018-08-25T21:24:59.750Z,12.00
2018-08-25T21:27:28.170Z,12.10
2018-08-25T21:29:56.547Z,12.00
2018-08-25T21:32:25.581Z,12.00
2018-08-25T21:34:54.012Z,11.90
2018-08-25T21:37:22.318Z,11.90
2018-08-25T21:39:50.562Z,11.90
2018-08-25T21:42:18.956Z,11.90
2018-08-25T21:44:47.381Z,11.90
2018-08-25T21:47:15.633Z,11.90
2018-08-25T21:49:43.927Z,11.80
2018-08-25T21:52:12.196Z,11.70
2018-08-25T21:54:40.381Z,11.70
2018-08-25T21:57:08.660Z,11.70
2018-08-25T21:59:36.984Z,11.70
2018-08-25T22:02:05.249Z,11.70
2018-08-25T22:04:33.538Z,11.70
2018-08-25T22:07:01.801Z,11.60
2018-08-25T22:09:30.123Z,11.60
2018-08-25T22:11:58.504Z,11.70
2018-08-25T22:14:26.818Z,11.70
2018-08-25T22:16:55.150Z,11.70
2018-08-25T22:19:23.442Z,11.80
2018-08-25T22:21:51.745Z,11.80
2018-08-25T22:24:20.051Z,11.80
2018-08-25T22:26:49.220Z,11.70
2018-08-25T22:29:17.548Z,11.70
2018-08-25T22:31:45.840Z,11.70
2018-08-25T22:34:14.270Z,11.60
2018-08-25T22:36:42.563Z,11.60
2018-08-25T22:39:12.236Z,11.60
2018-08-25T22:41:40.848Z,11.60
2018-08-25T22:44:09.908Z,11.50
2018-08-25T22:46:38.357Z,11.60
2018-08-25T22:49:07.037Z,11.60
2018-08-25T22:51:35.285Z,11.60
2018-08-25T22:54:03.700Z,11.50
2018-08-25T22:56:31.984Z,11.50
2018-08-25T22:59:00.321Z,11.50
2018-08-25T23:01:28.643Z,11.40
2018-08-25T23:03:57.114Z,11.40
2018-08-25T23:06:25.457Z,11.50
2018-08-25T23:08:53.734Z,11.40
2018-08-25T23:11:22.005Z,11.50
2018-08-25T23:13:50.287Z,11.40
2018-08-25T23:16:18.512Z,11.40
2018-08-25T23:18:46.827Z,11.40
2018-08-25T23:21:15.077Z,11.40
2018-08-25T23:23:43.390Z,11.40
2018-08-25T23:26:11.658Z,11.30
2018-08-25T23:28:39.918Z,11.40
2018-08-25T23:31:08.201Z,11.40
2018-08-25T23:33:36.493Z,11.40
2018-08-25T23:36:04.766Z,11.50
2018-08-25T23:38:32.989Z,11.50
2018-08-25T23:41:01.165Z,11.50
2018-08-25T23:43:29.718Z,11.50
2018-08-25T23:45:57.957Z,11.50
2018-08-25T23:48:26.174Z,11.50
2018-08-25T23:50:54.416Z,11.60
2018-08-25T23:53:22.634Z,11.50
2018-08-25T23:55:51.064Z,11.50
2018-08-25T23:58:19.288Z,11.50
